Time;durP1;ratioP1;P1;durP2;ratioP2;P2;SDS_P1;SDS_P2;PMS_P1;PMS_P2;Temp;Humidity;BMP_temperature;BMP_pressure;BME280_temperature;BME280_humidity;BME280_pressure;Samples;Min_cycle;Max_cycle;Signal;HPM_P1;HPM_P2
2023/05/21 00:00:01;;;;;;;15.35;4.63;;;16.30;94.60;;;;;;4197205;28;20047;-55
2023/05/21 00:02:04;;;;;;;10.52;4.28;;;16.20;94.80;;;;;;4196342;28;20487;-55
2023/05/21 00:04:06;;;;;;;15.75;5.50;;;16.20;94.80;;;;;;4197323;28;20044;-54
2023/05/21 00:06:08;;;;;;;14.30;5.28;;;16.20;94.90;;;;;;4197860;28;20045;-53
2023/05/21 00:08:11;;;;;;;12.80;5.10;;;16.20;94.90;;;;;;4197090;28;20068;-53
2023/05/21 00:10:13;;;;;;;13.30;5.18;;;16.20;94.90;;;;;;4197110;28;20048;-53
2023/05/21 00:12:15;;;;;;;10.85;5.32;;;16.20;95.30;;;;;;4196122;28;20406;-53
2023/05/21 00:14:17;;;;;;;12.90;6.00;;;16.10;95.10;;;;;;4196944;28;20045;-56
2023/05/21 00:16:19;;;;;;;14.05;5.28;;;16.10;95.00;;;;;;4196956;28;20486;-57
2023/05/21 00:18:24;;;;;;;13.20;5.43;;;16.20;95.10;;;;;;4196999;28;20052;-55
2023/05/21 00:20:28;;;;;;;12.35;5.78;;;16.10;95.10;;;;;;4197156;28;20048;-54
2023/05/21 00:22:32;;;;;;;12.82;5.47;;;16.10;95.20;;;;;;4195969;28;20135;-53
2023/05/21 00:24:34;;;;;;;14.50;5.57;;;16.10;95.30;;;;;;4196976;28;20496;-53
2023/05/21 00:26:37;;;;;;;11.85;5.25;;;16.10;95.30;;;;;;4206737;28;20492;-54
2023/05/21 00:28:39;;;;;;;18.65;5.57;;;16.00;95.40;;;;;;4213684;28;20113;-54
2023/05/21 00:30:41;;;;;;;16.33;6.53;;;16.00;95.30;;;;;;4213431;28;20050;-53
2023/05/21 00:32:43;;;;;;;11.73;5.60;;;16.00;95.50;;;;;;4212818;28;20048;-52
2023/05/21 00:34:47;;;;;;;14.82;6.15;;;16.00;95.50;;;;;;4213312;28;20044;-54
2023/05/21 00:36:49;;;;;;;11.10;5.40;;;16.00;95.50;;;;;;4213659;28;20111;-55
2023/05/21 00:38:51;;;;;;;12.50;5.78;;;16.00;95.60;;;;;;4203777;28;20095;-55
2023/05/21 00:40:53;;;;;;;12.73;6.05;;;16.00;95.50;;;;;;4195673;28;20052;-52
2023/05/21 00:42:56;;;;;;;14.88;5.80;;;16.00;95.60;;;;;;4196185;28;20054;-53
2023/05/21 00:44:58;;;;;;;12.65;5.88;;;15.90;95.70;;;;;;4196291;28;20045;-53
2023/05/21 00:47:01;;;;;;;12.38;5.63;;;16.00;95.60;;;;;;4196844;28;20044;-55
2023/05/21 00:49:03;;;;;;;14.70;6.13;;;15.90;95.70;;;;;;4196673;28;20044;-53
2023/05/21 00:51:06;;;;;;;9.98;5.45;;;15.80;95.90;;;;;;4196796;28;20052;-54
2023/05/21 00:53:09;;;;;;;12.60;5.75;;;15.90;95.90;;;;;;4195908;28;20154;-54
2023/05/21 00:55:11;;;;;;;11.90;5.43;;;15.90;95.80;;;;;;4196711;28;20097;-53
2023/05/21 00:57:15;;;;;;;13.80;6.00;;;15.90;95.90;;;;;;4196547;28;20048;-52
2023/05/21 00:59:17;;;;;;;13.43;6.50;;;15.90;95.90;;;;;;4197173;28;20097;-53
2023/05/21 01:01:19;;;;;;;15.80;5.75;;;15.90;96.00;;;;;;4197275;28;20048;-56
2023/05/21 01:03:22;;;;;;;13.40;6.20;;;15.90;96.00;;;;;;4196084;28;20052;-54
2023/05/21 01:05:24;;;;;;;12.18;6.32;;;15.90;96.00;;;;;;4197056;28;20068;-55
2023/05/21 01:07:28;;;;;;;9.45;5.85;;;15.90;95.90;;;;;;4200109;28;20049;-56
2023/05/21 01:09:30;;;;;;;15.82;7.20;;;15.80;96.10;;;;;;4199811;28;20045;-56
2023/05/21 01:11:38;;;;;;;16.13;6.93;;;15.80;96.10;;;;;;4199768;28;20460;-56
2023/05/21 01:13:41;;;;;;;14.80;6.22;;;15.80;96.10;;;;;;4198809;28;20041;-56
2023/05/21 01:15:44;;;;;;;11.85;6.30;;;15.80;96.20;;;;;;4199798;28;20048;-56
2023/05/21 01:17:47;;;;;;;15.40;6.78;;;15.80;96.30;;;;;;4199734;28;20140;-56
2023/05/21 01:19:51;;;;;;;11.13;6.47;;;15.80;96.20;;;;;;4199919;28;20052;-55
2023/05/21 01:22:03;;;;;;;11.90;6.38;;;15.70;96.30;;;;;;4199990;28;20049;-55
2023/05/21 01:24:06;;;;;;;17.20;6.90;;;15.70;96.40;;;;;;4200446;28;20051;-60
2023/05/21 01:26:11;;;;;;;15.18;6.40;;;15.60;96.40;;;;;;4207059;28;20040;-56
2023/05/21 01:28:14;;;;;;;11.23;6.82;;;15.60;96.50;;;;;;4216900;28;20109;-53
2023/05/21 01:30:18;;;;;;;15.57;7.18;;;15.60;96.50;;;;;;4217254;28;20048;-53
2023/05/21 01:32:28;;;;;;;17.77;7.22;;;15.60;96.50;;;;;;4216209;28;20397;-55
2023/05/21 01:34:36;;;;;;;15.57;7.35;;;15.60;96.70;;;;;;4216647;28;20184;-59
2023/05/21 01:36:48;;;;;;;14.85;7.43;;;15.50;96.70;;;;;;4216751;28;20499;-56
2023/05/21 01:38:56;;;;;;;15.27;7.15;;;15.50;96.70;;;;;;4206201;28;20055;-56
2023/05/21 01:41:05;;;;;;;15.02;7.80;;;15.50;96.80;;;;;;4199252;28;20493;-56
2023/05/21 01:43:09;;;;;;;14.38;7.03;;;15.50;96.90;;;;;;4197943;28;20041;-56
2023/05/21 01:45:14;;;;;;;11.75;6.53;;;15.40;97.00;;;;;;4199354;28;20071;-55
2023/05/21 01:47:17;;;;;;;13.00;7.20;;;15.40;97.00;;;;;;4199763;28;20426;-56
2023/05/21 01:49:23;;;;;;;13.88;6.90;;;15.40;97.20;;;;;;4199992;28;20052;-56
2023/05/21 01:51:26;;;;;;;14.60;7.28;;;15.30;97.20;;;;;;4199735;28;20131;-56
2023/05/21 01:53:28;;;;;;;20.52;7.53;;;15.30;97.20;;;;;;4197564;28;20048;-55
2023/05/21 01:55:31;;;;;;;9.43;6.55;;;15.30;97.30;;;;;;4199541;28;20048;-53
2023/05/21 01:57:35;;;;;;;10.85;6.75;;;15.30;97.30;;;;;;4198216;28;20048;-55
2023/05/21 01:59:37;;;;;;;12.95;7.13;;;15.30;97.30;;;;;;4199993;28;20074;-55
2023/05/21 02:01:40;;;;;;;14.70;7.53;;;15.30;97.30;;;;;;4199172;28;20044;-57
2023/05/21 02:03:42;;;;;;;13.65;7.68;;;15.30;97.40;;;;;;4198496;28;20457;-57
2023/05/21 02:05:45;;;;;;;15.73;7.43;;;15.30;97.40;;;;;;4199076;28;20045;-56
2023/05/21 02:07:49;;;;;;;11.73;7.38;;;15.30;97.40;;;;;;4198996;28;20071;-56
2023/05/21 02:09:51;;;;;;;12.50;7.75;;;15.30;97.50;;;;;;4198845;28;20076;-55
2023/05/21 02:11:55;;;;;;;12.02;7.18;;;15.20;97.60;;;;;;4198329;28;20113;-55
2023/05/21 02:13:59;;;;;;;18.23;7.38;;;15.30;97.60;;;;;;4197877;28;20490;-56
2023/05/21 02:16:01;;;;;;;14.45;7.68;;;15.30;97.60;;;;;;4198865;28;20056;-53
2023/05/21 02:18:03;;;;;;;15.18;7.47;;;15.20;97.80;;;;;;4197518;28;20445;-52
2023/05/21 02:20:13;;;;;;;10.57;7.28;;;15.20;97.70;;;;;;4198808;28;20094;-53
2023/05/21 02:22:15;;;;;;;16.35;7.78;;;15.20;97.80;;;;;;4198015;28;20044;-54
2023/05/21 02:24:17;;;;;;;18.65;8.43;;;15.10;97.90;;;;;;4198566;28;20152;-54
2023/05/21 02:26:21;;;;;;;14.57;8.63;;;15.10;97.90;;;;;;4205890;28;20044;-53
2023/05/21 02:28:23;;;;;;;14.40;7.75;;;15.10;98.00;;;;;;4215240;28;20052;-55
2023/05/21 02:30:26;;;;;;;14.10;8.13;;;15.10;97.90;;;;;;4214456;28;20448;-56
2023/05/21 02:32:30;;;;;;;14.85;8.07;;;15.10;98.00;;;;;;4214143;28;20056;-57
2023/05/21 02:34:35;;;;;;;19.07;8.67;;;15.20;98.10;;;;;;4215017;28;20501;-57
2023/05/21 02:36:37;;;;;;;12.18;8.00;;;15.10;98.10;;;;;;4215271;28;20529;-57
2023/05/21 02:38:42;;;;;;;18.38;8.75;;;15.10;98.20;;;;;;4206993;28;20476;-56
2023/05/21 02:40:44;;;;;;;13.48;8.57;;;15.00;98.30;;;;;;4197821;28;20063;-56
2023/05/21 02:42:46;;;;;;;16.63;8.68;;;15.00;98.40;;;;;;4197451;28;20075;-56
2023/05/21 02:44:49;;;;;;;16.10;7.78;;;15.00;98.20;;;;;;4198131;28;20124;-55
2023/05/21 02:46:53;;;;;;;22.83;9.00;;;15.00;98.40;;;;;;4198276;28;20048;-54
2023/05/21 02:48:55;;;;;;;391.77;57.88;;;15.00;98.30;;;;;;4198281;28;20064;-51
2023/05/21 02:50:57;;;;;;;16.55;9.15;;;14.90;98.50;;;;;;4198462;28;20079;-53
2023/05/21 02:52:59;;;;;;;65.00;9.10;;;15.00;98.30;;;;;;4195999;28;20173;-53
2023/05/21 02:55:02;;;;;;;17.05;8.35;;;15.00;98.50;;;;;;4197999;28;20052;-56
2023/05/21 02:57:04;;;;;;;106.88;12.82;;;14.90;98.60;;;;;;4197989;28;20048;-54
2023/05/21 02:59:06;;;;;;;25.40;9.57;;;14.80;98.60;;;;;;4198747;28;20044;-54
2023/05/21 03:01:09;;;;;;;16.70;9.75;;;14.80;98.70;;;;;;4198763;28;20072;-56
2023/05/21 03:03:12;;;;;;;15.70;8.63;;;14.80;98.70;;;;;;4197991;28;20045;-53
2023/05/21 03:05:14;;;;;;;17.77;9.13;;;14.90;98.80;;;;;;4199850;28;20416;-55
2023/05/21 03:07:17;;;;;;;21.20;9.77;;;14.80;99.00;;;;;;4199971;28;20044;-53
2023/05/21 03:09:20;;;;;;;20.05;9.65;;;14.60;99.20;;;;;;4197870;28;20044;-54
2023/05/21 03:11:23;;;;;;;19.83;10.10;;;14.60;99.30;;;;;;4198220;28;20040;-53
2023/05/21 03:13:25;;;;;;;18.83;9.80;;;14.60;99.40;;;;;;4197126;28;20041;-53
2023/05/21 03:15:32;;;;;;;15.20;9.18;;;14.60;99.50;;;;;;4198132;28;20106;-53
2023/05/21 03:17:34;;;;;;;23.38;9.63;;;14.60;99.40;;;;;;4197732;28;20049;-54
2023/05/21 03:19:37;;;;;;;14.95;8.75;;;14.60;99.40;;;;;;4196509;28;20052;-53
2023/05/21 03:21:40;;;;;;;21.55;9.93;;;14.60;99.50;;;;;;4197741;28;20144;-53
2023/05/21 03:23:42;;;;;;;17.30;9.50;;;14.60;99.50;;;;;;4196414;28;20041;-53
2023/05/21 03:25:44;;;;;;;16.38;9.27;;;14.60;99.50;;;;;;4200436;28;20048;-57
2023/05/21 03:27:47;;;;;;;22.70;10.05;;;14.60;99.60;;;;;;4196540;28;20049;-57
2023/05/21 03:29:49;;;;;;;18.42;8.93;;;14.60;99.60;;;;;;4214033;28;20085;-58
2023/05/21 03:31:52;;;;;;;18.50;10.38;;;14.50;99.70;;;;;;4214541;28;20048;-58
2023/05/21 03:33:55;;;;;;;21.23;10.07;;;14.50;99.90;;;;;;4213263;28;20043;-57
2023/05/21 03:35:58;;;;;;;22.15;10.60;;;14.40;99.80;;;;;;4214308;28;20070;-56
2023/05/21 03:38:00;;;;;;;19.83;10.40;;;14.50;99.90;;;;;;4211034;28;20056;-57
2023/05/21 03:40:03;;;;;;;19.17;9.98;;;14.40;99.90;;;;;;4197504;28;20052;-56
2023/05/21 03:42:05;;;;;;;16.15;9.05;;;14.50;99.90;;;;;;4197175;28;20095;-57
2023/05/21 03:44:08;;;;;;;21.92;9.80;;;14.40;99.90;;;;;;4196400;28;20056;-57
2023/05/21 03:46:10;;;;;;;16.55;8.88;;;14.50;99.90;;;;;;4196336;28;20044;-57
2023/05/21 03:48:12;;;;;;;17.30;9.73;;;14.50;99.90;;;;;;4197180;28;20119;-57
2023/05/21 03:50:14;;;;;;;20.60;10.50;;;14.50;99.90;;;;;;4197540;28;20045;-56
2023/05/21 03:52:17;;;;;;;20.90;10.20;;;14.50;99.80;;;;;;4197354;28;20135;-56
2023/05/21 03:54:20;;;;;;;21.27;10.45;;;14.50;99.90;;;;;;4196080;28;20105;-57
2023/05/21 03:56:22;;;;;;;17.90;9.95;;;14.40;99.90;;;;;;4197425;28;20076;-56
2023/05/21 03:58:25;;;;;;;21.75;10.48;;;14.50;99.90;;;;;;4197419;28;20150;-56
2023/05/21 04:00:27;;;;;;;26.73;13.93;;;14.50;99.90;;;;;;4197576;28;20049;-56
2023/05/21 04:02:30;;;;;;;46.17;11.55;;;14.50;99.90;;;;;;4197172;28;20044;-57
2023/05/21 04:04:32;;;;;;;19.23;10.60;;;14.50;99.90;;;;;;4196408;28;20431;-57
2023/05/21 04:06:35;;;;;;;24.17;11.10;;;14.50;99.90;;;;;;4197358;28;20048;-57
2023/05/21 04:08:39;;;;;;;23.15;11.57;;;14.50;99.90;;;;;;4196945;28;20093;-56
2023/05/21 04:10:41;;;;;;;20.05;10.23;;;14.50;99.80;;;;;;4197338;28;20047;-56
2023/05/21 04:12:43;;;;;;;20.60;11.52;;;14.50;99.90;;;;;;4196320;28;20050;-57
2023/05/21 04:14:45;;;;;;;18.45;10.25;;;14.50;99.90;;;;;;4196961;28;20041;-56
2023/05/21 04:16:47;;;;;;;19.92;10.77;;;14.50;99.90;;;;;;4197045;28;20055;-56
2023/05/21 04:18:51;;;;;;;17.92;10.10;;;14.50;99.90;;;;;;4197071;28;20124;-56
2023/05/21 04:20:53;;;;;;;19.27;10.52;;;14.50;99.90;;;;;;4197356;28;20072;-56
2023/05/21 04:22:55;;;;;;;16.95;9.93;;;14.50;99.90;;;;;;4194689;28;20040;-57
2023/05/21 04:24:59;;;;;;;18.52;10.73;;;14.50;99.90;;;;;;4197195;28;20478;-55
2023/05/21 04:27:01;;;;;;;22.02;10.82;;;14.50;99.90;;;;;;4210501;28;20075;-53
2023/05/21 04:29:03;;;;;;;18.85;10.52;;;14.50;99.90;;;;;;4214205;28;20048;-52
2023/05/21 04:31:07;;;;;;;22.20;11.23;;;14.60;99.80;;;;;;4215230;28;20039;-53
2023/05/21 04:33:09;;;;;;;18.60;10.57;;;14.60;99.70;;;;;;4214537;28;20504;-54
2023/05/21 04:35:14;;;;;;;20.27;10.63;;;14.60;99.80;;;;;;4214839;28;20433;-52
2023/05/21 04:37:19;;;;;;;16.63;11.40;;;14.60;99.70;;;;;;4215128;28;20131;-56
2023/05/21 04:39:21;;;;;;;18.40;10.80;;;14.60;99.80;;;;;;4200596;28;20075;-57
2023/05/21 04:41:24;;;;;;;18.65;10.85;;;14.60;99.80;;;;;;4199672;28;20052;-52
2023/05/21 04:43:27;;;;;;;17.75;10.00;;;14.60;99.70;;;;;;4200410;28;20041;-53
2023/05/21 04:45:29;;;;;;;16.77;10.23;;;14.70;99.70;;;;;;4199436;28;20044;-53
2023/05/21 04:47:34;;;;;;;19.17;11.60;;;14.60;99.70;;;;;;4200662;28;20087;-52
2023/05/21 04:49:36;;;;;;;18.50;11.18;;;14.60;99.70;;;;;;4200550;28;20041;-53
2023/05/21 04:51:38;;;;;;;21.38;11.98;;;14.60;99.80;;;;;;4199970;28;20075;-52
2023/05/21 04:53:41;;;;;;;19.33;11.20;;;14.60;99.70;;;;;;4199350;28;20044;-53
2023/05/21 04:55:43;;;;;;;18.00;11.70;;;14.70;99.60;;;;;;4200329;28;20539;-53
2023/05/21 04:57:47;;;;;;;16.50;11.25;;;14.70;99.60;;;;;;4199967;28;20127;-53
2023/05/21 04:59:49;;;;;;;14.80;11.10;;;14.80;99.50;;;;;;4199883;28;20075;-53
2023/05/21 05:01:51;;;;;;;18.38;11.27;;;14.80;99.40;;;;;;4200193;28;20077;-53
2023/05/21 05:03:53;;;;;;;18.25;11.05;;;14.80;99.50;;;;;;4199101;28;20051;-57
2023/05/21 05:05:55;;;;;;;17.13;10.88;;;14.90;99.30;;;;;;4199707;28;20044;-56
2023/05/21 05:07:57;;;;;;;17.35;11.35;;;14.90;99.20;;;;;;4200260;28;20064;-57
2023/05/21 05:09:59;;;;;;;22.23;11.27;;;14.90;99.10;;;;;;4199941;28;20094;-57
2023/05/21 05:12:01;;;;;;;17.10;10.68;;;14.80;99.20;;;;;;4199817;28;20049;-55
2023/05/21 05:14:06;;;;;;;16.67;10.95;;;14.90;99.20;;;;;;4198944;28;20128;-55
2023/05/21 05:16:10;;;;;;;17.08;10.88;;;14.90;99.20;;;;;;4199757;28;20603;-56
2023/05/21 05:18:12;;;;;;;14.75;10.57;;;14.90;99.40;;;;;;4199933;28;20058;-55
2023/05/21 05:20:14;;;;;;;18.90;11.30;;;15.00;99.10;;;;;;4199239;28;20048;-55
2023/05/21 05:22:16;;;;;;;18.15;11.30;;;15.00;99.00;;;;;;4199838;28;20059;-57
2023/05/21 05:24:18;;;;;;;14.23;10.40;;;15.00;98.90;;;;;;4198623;28;20465;-53
2023/05/21 05:26:21;;;;;;;20.65;10.85;;;15.10;98.80;;;;;;4206934;28;20040;-53
2023/05/21 05:28:23;;;;;;;18.63;10.35;;;15.20;98.80;;;;;;4216777;28;20474;-53
2023/05/21 05:30:26;;;;;;;17.92;11.50;;;15.20;98.80;;;;;;4216847;28;20109;-52
2023/05/21 05:32:28;;;;;;;12.68;9.77;;;15.30;98.70;;;;;;4216418;28;20067;-53
2023/05/21 05:34:31;;;;;;;21.90;10.85;;;15.30;98.60;;;;;;4215092;28;20467;-56
2023/05/21 05:36:33;;;;;;;13.60;11.05;;;15.40;98.50;;;;;;4216687;28;20044;-54
2023/05/21 05:38:35;;;;;;;18.25;10.70;;;15.40;98.40;;;;;;4208136;28;20400;-52
2023/05/21 05:40:37;;;;;;;17.67;10.45;;;15.50;98.20;;;;;;4197993;28;20115;-51
2023/05/21 05:42:39;;;;;;;19.48;10.82;;;15.50;98.40;;;;;;4199076;28;20048;-54
2023/05/21 05:44:41;;;;;;;17.00;10.65;;;15.50;98.40;;;;;;4198165;28;20045;-52
2023/05/21 05:46:45;;;;;;;14.32;9.75;;;15.60;98.20;;;;;;4199213;28;20040;-56
2023/05/21 05:48:47;;;;;;;17.63;10.10;;;15.60;98.20;;;;;;4199062;28;20045;-57
2023/05/21 05:50:53;;;;;;;15.55;10.32;;;15.60;97.90;;;;;;4199152;28;20049;-56
2023/05/21 05:52:55;;;;;;;14.20;9.20;;;15.70;97.90;;;;;;4198725;28;20047;-56
2023/05/21 05:54:57;;;;;;;14.90;9.02;;;15.70;98.00;;;;;;4198654;28;20052;-57
2023/05/21 05:56:59;;;;;;;14.25;9.20;;;15.80;97.90;;;;;;4199298;28;20513;-55
2023/05/21 05:59:01;;;;;;;14.90;10.55;;;15.90;97.80;;;;;;4199098;28;20219;-56
2023/05/21 06:01:03;;;;;;;17.88;10.18;;;15.90;97.60;;;;;;4199335;28;20075;-56
2023/05/21 06:03:07;;;;;;;19.00;10.40;;;16.00;97.50;;;;;;4198126;28;20120;-57
2023/05/21 06:05:09;;;;;;;17.05;9.88;;;16.00;97.60;;;;;;4199142;28;20056;-57
2023/05/21 06:07:11;;;;;;;16.60;10.13;;;16.10;97.30;;;;;;4199050;28;20051;-56
2023/05/21 06:09:14;;;;;;;14.88;9.75;;;16.10;97.10;;;;;;4198937;28;20123;-52
2023/05/21 06:11:17;;;;;;;13.25;9.65;;;16.20;97.20;;;;;;4198787;28;20477;-55
2023/05/21 06:13:19;;;;;;;12.98;9.77;;;16.10;97.00;;;;;;4197962;28;20483;-55
2023/05/21 06:15:21;;;;;;;15.35;10.25;;;16.00;97.10;;;;;;4198561;28;20041;-56
2023/05/21 06:17:24;;;;;;;18.13;10.30;;;16.10;97.20;;;;;;4198442;28;20045;-58
2023/05/21 06:19:27;;;;;;;17.33;10.75;;;16.00;97.20;;;;;;4198695;28;20429;-56
2023/05/21 06:21:30;;;;;;;14.85;9.20;;;16.00;97.10;;;;;;4198876;28;20053;-55
2023/05/21 06:23:34;;;;;;;19.77;10.05;;;16.00;97.40;;;;;;4198050;28;20056;-55
2023/05/21 06:25:36;;;;;;;15.13;9.48;;;16.10;97.20;;;;;;4199988;28;20044;-55
2023/05/21 06:27:39;;;;;;;17.55;10.32;;;16.10;97.10;;;;;;4215577;28;20052;-55
2023/05/21 06:29:41;;;;;;;14.93;10.30;;;16.10;96.90;;;;;;4215562;28;20505;-57
2023/05/21 06:31:43;;;;;;;15.77;9.90;;;16.20;97.10;;;;;;4215480;28;20070;-56
2023/05/21 06:33:45;;;;;;;16.88;9.05;;;16.20;96.90;;;;;;4213909;28;20042;-56
2023/05/21 06:35:49;;;;;;;18.25;10.20;;;16.30;96.90;;;;;;4215567;28;20044;-57
2023/05/21 06:37:51;;;;;;;18.92;9.27;;;16.30;96.90;;;;;;4213881;28;20040;-57
2023/05/21 06:39:53;;;;;;;15.25;9.95;;;16.40;96.70;;;;;;4198564;28;20040;-56
2023/05/21 06:41:55;;;;;;;15.32;10.10;;;16.40;96.60;;;;;;4198107;28;20080;-57
2023/05/21 06:43:57;;;;;;;18.52;9.68;;;16.40;96.70;;;;;;4197462;28;20049;-55
2023/05/21 06:46:00;;;;;;;13.63;8.48;;;16.50;96.60;;;;;;4198436;28;20055;-55
2023/05/21 06:48:02;;;;;;;16.25;10.10;;;16.60;96.40;;;;;;4198155;28;20044;-56
2023/05/21 06:50:05;;;;;;;13.60;9.20;;;16.80;96.30;;;;;;4198219;28;20064;-55
2023/05/21 06:52:09;;;;;;;16.90;9.63;;;16.70;96.10;;;;;;4198050;28;20124;-57
2023/05/21 06:54:12;;;;;;;16.50;9.38;;;16.80;96.30;;;;;;4197234;28;20049;-55
2023/05/21 06:56:14;;;;;;;15.93;9.70;;;16.70;96.00;;;;;;4198399;28;20052;-56
2023/05/21 06:58:16;;;;;;;13.85;9.35;;;16.70;96.00;;;;;;4198090;28;20106;-56
2023/05/21 07:00:18;;;;;;;18.17;9.20;;;16.90;96.10;;;;;;4198055;28;20426;-55
2023/05/21 07:02:20;;;;;;;18.52;9.75;;;17.00;95.90;;;;;;4197905;28;20126;-55
2023/05/21 07:04:24;;;;;;;15.88;9.20;;;17.00;96.00;;;;;;4196153;28;20059;-57
2023/05/21 07:06:26;;;;;;;14.45;8.40;;;17.10;95.90;;;;;;4196580;28;20052;-56
2023/05/21 07:08:30;;;;;;;18.45;9.07;;;17.30;96.00;;;;;;4197047;28;20055;-57
2023/05/21 07:10:32;;;;;;;13.45;9.00;;;17.30;95.60;;;;;;4197922;28;20045;-56
2023/05/21 07:12:34;;;;;;;15.73;9.05;;;17.40;95.30;;;;;;4197861;28;20067;-57
2023/05/21 07:14:36;;;;;;;15.77;9.07;;;17.50;95.40;;;;;;4197012;28;20041;-56
2023/05/21 07:16:38;;;;;;;17.33;9.63;;;17.60;94.90;;;;;;4197458;28;20040;-56
2023/05/21 07:18:40;;;;;;;12.57;8.15;;;17.60;94.90;;;;;;4197958;28;20052;-57
2023/05/21 07:20:42;;;;;;;20.02;9.07;;;17.70;95.00;;;;;;4197731;28;20116;-57
2023/05/21 07:22:45;;;;;;;14.02;8.82;;;17.80;94.90;;;;;;4197624;28;20045;-56
2023/05/21 07:24:48;;;;;;;15.18;9.40;;;17.90;94.80;;;;;;4196561;28;20052;-56
2023/05/21 07:26:50;;;;;;;19.20;9.70;;;18.00;94.60;;;;;;4209328;28;20086;-56
2023/05/21 07:28:52;;;;;;;18.50;9.45;;;18.10;94.30;;;;;;4214348;28;20048;-56
2023/05/21 07:30:54;;;;;;;21.25;9.40;;;17.90;94.30;;;;;;4214494;28;20064;-56
2023/05/21 07:32:57;;;;;;;15.05;9.68;;;17.90;94.30;;;;;;4214691;28;20628;-56
2023/05/21 07:35:02;;;;;;;14.63;9.55;;;17.80;94.50;;;;;;4213577;28;20091;-57
2023/05/21 07:37:04;;;;;;;16.67;9.73;;;17.90;94.50;;;;;;4215853;28;20048;-56
2023/05/21 07:39:06;;;;;;;11.20;8.57;;;17.90;94.50;;;;;;4203845;28;20036;-57
2023/05/21 07:41:10;;;;;;;13.73;9.65;;;18.10;94.50;;;;;;4198320;28;20057;-56
2023/05/21 07:43:12;;;;;;;14.10;9.45;;;18.30;94.30;;;;;;4198042;28;20470;-56
2023/05/21 07:45:14;;;;;;;14.45;8.82;;;18.40;94.00;;;;;;4196606;28;20081;-56
2023/05/21 07:47:16;;;;;;;16.60;9.35;;;18.40;94.00;;;;;;4197416;28;20049;-55
2023/05/21 07:49:18;;;;;;;15.07;8.18;;;18.50;93.80;;;;;;4197527;28;20048;-53
2023/05/21 07:51:22;;;;;;;14.75;8.82;;;18.60;93.90;;;;;;4197443;28;20052;-54
2023/05/21 07:53:24;;;;;;;12.68;8.52;;;18.50;93.60;;;;;;4196328;28;20074;-54
2023/05/21 07:55:26;;;;;;;17.52;8.23;;;18.50;93.90;;;;;;4197248;28;20379;-54
2023/05/21 07:57:29;;;;;;;11.73;8.60;;;18.60;93.60;;;;;;4197237;28;20050;-56
2023/05/21 07:59:32;;;;;;;14.13;8.77;;;18.50;93.60;;;;;;4196947;28;20057;-56
2023/05/21 08:01:36;;;;;;;14.02;8.63;;;18.50;93.60;;;;;;4197293;28;20067;-57
2023/05/21 08:03:38;;;;;;;13.93;8.77;;;18.60;93.80;;;;;;4196464;28;20048;-54
2023/05/21 08:05:40;;;;;;;15.02;8.13;;;18.60;93.50;;;;;;4196926;28;20060;-55
2023/05/21 08:07:43;;;;;;;14.50;8.02;;;18.70;93.40;;;;;;4197101;28;20462;-54
2023/05/21 08:09:45;;;;;;;9.07;7.55;;;18.80;93.20;;;;;;4197091;28;20064;-54
2023/05/21 08:11:48;;;;;;;11.20;7.43;;;18.80;93.20;;;;;;4197095;28;20094;-55
2023/05/21 08:13:51;;;;;;;17.05;8.32;;;18.90;93.00;;;;;;4196173;28;20067;-55
2023/05/21 08:15:53;;;;;;;12.13;8.07;;;18.90;93.30;;;;;;4196230;28;20184;-53
2023/05/21 08:17:55;;;;;;;18.30;7.80;;;18.80;93.00;;;;;;4197004;28;20048;-53
2023/05/21 08:19:57;;;;;;;33.03;8.38;;;18.80;93.10;;;;;;4196822;28;20040;-54
2023/05/21 08:22:00;;;;;;;11.57;7.38;;;18.80;92.90;;;;;;4197370;28;20045;-51
2023/05/21 08:24:02;;;;;;;14.65;7.82;;;18.90;92.90;;;;;;4196196;28;20044;-53
2023/05/21 08:26:05;;;;;;;12.27;6.28;;;19.00;93.00;;;;;;4202673;28;20346;-52
2023/05/21 08:28:07;;;;;;;12.73;7.05;;;19.00;92.60;;;;;;4214549;28;20048;-52
2023/05/21 08:30:12;;;;;;;15.50;7.40;;;19.10;92.40;;;;;;4214090;28;20119;-56
2023/05/21 08:32:14;;;;;;;14.25;7.22;;;18.80;92.40;;;;;;4214916;28;20127;-53
2023/05/21 08:34:17;;;;;;;13.43;7.32;;;18.90;92.70;;;;;;4196174;28;20102;-52
2023/05/21 08:36:20;;;;;;;8.07;5.90;;;18.90;92.50;;;;;;4214404;28;20056;-52
2023/05/21 08:38:22;;;;;;;9.02;5.90;;;19.00;92.60;;;;;;4208031;28;20106;-53
2023/05/21 08:40:24;;;;;;;13.63;6.00;;;19.10;92.50;;;;;;4197017;28;20068;-53
2023/05/21 08:42:33;;;;;;;9.88;5.65;;;19.10;92.10;;;;;;4196378;28;20048;-56
2023/05/21 08:44:47;;;;;;;9.82;5.40;;;19.20;91.90;;;;;;4196028;28;20052;-55
2023/05/21 08:46:51;;;;;;;10.95;5.32;;;19.30;91.60;;;;;;4196869;28;20123;-54
2023/05/21 08:48:54;;;;;;;10.38;5.13;;;19.30;91.50;;;;;;4195461;28;20052;-56
2023/05/21 08:50:58;;;;;;;7.60;4.78;;;19.20;91.10;;;;;;4195650;28;20074;-54
2023/05/21 08:53:00;;;;;;;10.98;5.35;;;19.10;91.20;;;;;;4196892;28;20161;-53
2023/05/21 08:55:11;;;;;;;11.18;5.20;;;19.10;91.40;;;;;;4195966;28;20041;-55
2023/05/21 08:57:14;;;;;;;12.10;5.55;;;19.20;91.10;;;;;;4196467;28;20044;-55
2023/05/21 08:59:18;;;;;;;10.85;5.35;;;19.20;91.30;;;;;;4196952;28;20110;-55
2023/05/21 09:01:21;;;;;;;7.40;4.72;;;19.30;91.10;;;;;;4196543;28;20163;-55
2023/05/21 09:03:30;;;;;;;11.25;5.15;;;19.30;90.70;;;;;;4196789;28;20052;-55
2023/05/21 09:05:33;;;;;;;6.22;4.60;;;19.30;90.70;;;;;;4195986;28;20409;-54
2023/05/21 09:07:41;;;;;;;8.50;5.03;;;19.40;90.70;;;;;;4196788;28;20048;-55
2023/05/21 09:09:50;;;;;;;6.05;4.60;;;19.20;90.70;;;;;;4196622;28;20053;-54
2023/05/21 09:11:52;;;;;;;9.63;4.90;;;19.40;90.90;;;;;;4196304;28;20478;-54
2023/05/21 09:13:56;;;;;;;11.30;5.07;;;19.50;90.80;;;;;;4195912;28;20068;-55
2023/05/21 09:15:58;;;;;;;7.50;5.20;;;19.30;90.60;;;;;;4196670;28;20123;-55
2023/05/21 09:18:01;;;;;;;8.35;5.45;;;19.30;90.70;;;;;;4196422;28;20051;-55
2023/05/21 09:20:13;;;;;;;11.23;5.38;;;19.20;90.90;;;;;;4196330;28;20049;-54
2023/05/21 09:22:16;;;;;;;10.68;5.78;;;19.20;91.10;;;;;;4196417;28;20083;-54
2023/05/21 09:24:21;;;;;;;11.30;5.72;;;19.20;91.00;;;;;;4196067;28;20055;-54
2023/05/21 09:26:24;;;;;;;10.55;5.50;;;19.20;91.20;;;;;;4204754;28;20069;-57
2023/05/21 09:28:26;;;;;;;8.38;5.82;;;19.20;91.30;;;;;;4216075;28;20070;-58
2023/05/21 09:30:28;;;;;;;10.15;6.10;;;19.30;91.40;;;;;;4197958;28;20075;-58
2023/05/21 09:32:34;;;;;;;10.15;6.45;;;19.50;91.20;;;;;;4216388;28;20105;-58
2023/05/21 09:34:36;;;;;;;8.15;5.20;;;19.70;91.10;;;;;;4215018;28;20131;-58
2023/05/21 09:36:39;;;;;;;6.78;4.88;;;19.80;91.10;;;;;;4216331;28;20055;-54
2023/05/21 09:38:43;;;;;;;10.75;6.43;;;19.80;91.20;;;;;;4207245;28;20143;-57
2023/05/21 09:40:45;;;;;;;10.95;5.78;;;19.90;90.80;;;;;;4199028;28;20072;-56
2023/05/21 09:42:49;;;;;;;9.45;5.78;;;19.90;91.10;;;;;;4199273;28;20047;-54
2023/05/21 09:44:52;;;;;;;10.05;6.45;;;20.00;90.80;;;;;;4198209;28;20446;-57
2023/05/21 09:46:57;;;;;;;9.93;6.68;;;19.90;90.80;;;;;;4199115;28;20160;-58
2023/05/21 09:48:59;;;;;;;10.48;6.78;;;20.00;91.00;;;;;;4199143;28;20052;-57
2023/05/21 09:51:12;;;;;;;22.35;6.43;;;20.10;90.90;;;;;;4199374;28;20056;-58
2023/05/21 09:53:16;;;;;;;11.20;6.20;;;20.20;90.80;;;;;;4199210;28;20045;-53
2023/05/21 09:55:22;;;;;;;12.23;6.78;;;20.00;90.80;;;;;;4197686;28;20072;-54
2023/05/21 09:57:25;;;;;;;9.40;6.43;;;20.20;90.70;;;;;;4199234;28;20049;-53
2023/05/21 09:59:35;;;;;;;12.77;6.70;;;20.20;90.70;;;;;;4199067;28;20045;-55
2023/05/21 10:01:37;;;;;;;11.18;6.18;;;20.30;90.50;;;;;;4199228;28;20375;-55
2023/05/21 10:03:41;;;;;;;9.15;6.35;;;20.30;90.70;;;;;;4199246;28;20383;-54
2023/05/21 10:05:43;;;;;;;10.87;7.10;;;20.60;90.50;;;;;;4198426;28;20106;-55
2023/05/21 10:07:50;;;;;;;8.95;6.13;;;20.60;90.30;;;;;;4199107;28;20049;-57
2023/05/21 10:09:56;;;;;;;9.68;5.60;;;20.60;90.40;;;;;;4198668;28;20044;-57
2023/05/21 10:11:59;;;;;;;7.72;5.93;;;20.40;90.40;;;;;;4198709;28;20098;-53
2023/05/21 10:14:06;;;;;;;10.18;6.50;;;20.50;90.40;;;;;;4198228;28;20071;-55
2023/05/21 10:16:08;;;;;;;8.07;5.80;;;20.70;90.30;;;;;;4198546;28;20140;-54
2023/05/21 10:18:12;;;;;;;8.30;6.38;;;20.60;90.00;;;;;;4199119;28;20051;-55
2023/05/21 10:20:16;;;;;;;9.85;6.22;;;20.60;90.10;;;;;;4198908;28;20127;-54
2023/05/21 10:22:18;;;;;;;9.68;6.45;;;20.70;90.10;;;;;;4198785;28;20052;-53
2023/05/21 10:24:22;;;;;;;8.50;6.47;;;20.80;89.70;;;;;;4197680;28;20064;-54
2023/05/21 10:26:26;;;;;;;11.32;6.32;;;20.90;89.10;;;;;;4197066;28;20045;-54
2023/05/21 10:28:30;;;;;;;10.50;6.55;;;20.90;89.30;;;;;;4215724;28;20048;-56
2023/05/21 10:30:33;;;;;;;8.95;6.53;;;20.90;89.10;;;;;;4214975;28;20075;-57